Time;durP1;ratioP1;P1;durP2;ratioP2;P2;SDS_P1;SDS_P2;PMS_P1;PMS_P2;Temp;Humidity;BMP_temperature;BMP_pressure;BME280_temperature;BME280_humidity;BME280_pressure;Samples;Min_cycle;Max_cycle;Signal;HPM_P1;HPM_P2
2023/08/09 00:02:17;;;;;;;4.80;2.47;;;16.00;99.90;;;;;;5091207;28;20185;-69
2023/08/09 00:04:42;;;;;;;3.00;2.70;;;16.00;99.90;;;;;;5089565;28;20182;-69
2023/08/09 00:07:08;;;;;;;2.93;2.67;;;16.00;99.90;;;;;;5076919;28;20196;-69
2023/08/09 00:09:33;;;;;;;3.13;2.83;;;16.20;99.90;;;;;;5067906;28;20182;-69
2023/08/09 00:11:59;;;;;;;4.70;2.80;;;16.20;99.90;;;;;;5087727;28;20205;-70
2023/08/09 00:14:24;;;;;;;2.90;2.70;;;16.10;99.90;;;;;;5073801;28;20645;-70
2023/08/09 00:16:50;;;;;;;4.73;2.83;;;16.10;99.90;;;;;;5087529;28;20206;-70
2023/08/09 00:19:15;;;;;;;4.57;3.27;;;16.10;99.90;;;;;;5088861;28;20178;-70
2023/08/09 00:21:41;;;;;;;4.53;2.87;;;16.20;99.90;;;;;;5088321;28;20201;-70
2023/08/09 00:24:07;;;;;;;3.03;2.73;;;16.20;99.90;;;;;;5089662;28;20173;-70
2023/08/09 00:26:32;;;;;;;2.40;2.20;;;16.30;99.90;;;;;;5098355;28;20247;-70
2023/08/09 00:28:58;;;;;;;5.20;2.80;;;16.20;99.90;;;;;;5089118;28;20184;-70
2023/08/09 00:31:23;;;;;;;3.17;2.03;;;16.20;99.90;;;;;;5068027;28;20198;-70
2023/08/09 00:33:49;;;;;;;3.20;2.90;;;16.20;99.90;;;;;;5091388;28;20192;-70
2023/08/09 00:36:15;;;;;;;2.80;2.50;;;16.10;99.90;;;;;;5067567;28;20190;-70
2023/08/09 00:38:41;;;;;;;4.90;3.60;;;16.10;99.90;;;;;;5070536;28;20181;-70
2023/08/09 00:41:07;;;;;;;7.70;2.57;;;16.10;99.90;;;;;;5069198;28;20542;-70
2023/08/09 00:43:32;;;;;;;4.63;3.13;;;16.10;99.90;;;;;;5074395;28;20440;-70
2023/08/09 00:45:59;;;;;;;4.03;2.90;;;16.20;99.90;;;;;;5089755;28;20177;-70
2023/08/09 00:48:24;;;;;;;3.47;3.17;;;16.30;99.90;;;;;;5085216;28;20174;-70
2023/08/09 00:50:50;;;;;;;3.83;2.70;;;16.30;99.90;;;;;;5088687;28;20993;-70
2023/08/09 00:53:16;;;;;;;3.23;2.80;;;16.30;99.90;;;;;;5073668;28;20182;-70
2023/08/09 00:55:42;;;;;;;2.80;2.53;;;16.30;99.90;;;;;;5067522;28;20457;-70
2023/08/09 00:58:08;;;;;;;5.10;3.27;;;16.40;99.90;;;;;;5083349;28;20436;-71
2023/08/09 01:00:33;;;;;;;5.20;2.70;;;16.30;99.90;;;;;;5086925;28;20606;-70
2023/08/09 01:02:59;;;;;;;3.90;3.10;;;16.30;99.90;;;;;;5085212;28;20591;-70
2023/08/09 01:05:36;;;;;;;3.50;2.70;;;16.30;99.90;;;;;;5080449;28;20174;-71
2023/08/09 01:08:12;;;;;;;6.00;3.23;;;16.30;99.90;;;;;;5082543;28;20493;-69
2023/08/09 01:10:49;;;;;;;4.00;3.10;;;16.30;99.90;;;;;;5086179;28;20450;-70
2023/08/09 01:13:19;;;;;;;4.20;3.53;;;16.30;99.90;;;;;;5090115;28;20423;-71
2023/08/09 01:15:47;;;;;;;4.57;3.40;;;16.30;99.90;;;;;;5084770;28;20462;-70
2023/08/09 01:18:13;;;;;;;4.40;3.50;;;16.30;99.90;;;;;;5084523;28;20420;-70
2023/08/09 01:20:39;;;;;;;3.63;3.13;;;16.30;99.90;;;;;;5090186;28;20454;-70
2023/08/09 01:23:16;;;;;;;4.30;3.00;;;16.30;99.90;;;;;;5087422;28;20514;-69
2023/08/09 01:25:43;;;;;;;3.70;3.40;;;16.40;99.90;;;;;;5086854;28;20439;-69
2023/08/09 01:28:09;;;;;;;5.03;3.83;;;16.40;99.90;;;;;;5082311;28;20428;-69
2023/08/09 01:30:35;;;;;;;6.00;4.27;;;16.40;99.90;;;;;;5085038;28;20487;-69
2023/08/09 01:33:01;;;;;;;5.90;3.87;;;16.40;99.90;;;;;;5069879;28;20435;-69
2023/08/09 01:35:34;;;;;;;4.57;4.13;;;16.50;99.90;;;;;;5086768;28;20435;-69
2023/08/09 01:38:05;;;;;;;13.33;5.03;;;16.50;99.90;;;;;;5065576;28;20170;-69
2023/08/09 01:40:32;;;;;;;3.73;3.40;;;16.40;99.90;;;;;;5069812;28;20439;-69
2023/08/09 01:42:59;;;;;;;6.67;3.40;;;16.50;99.90;;;;;;5087645;28;20464;-69
2023/08/09 01:45:25;;;;;;;3.03;2.60;;;16.50;99.90;;;;;;5078273;28;20435;-69
2023/08/09 01:47:51;;;;;;;3.70;3.20;;;16.60;99.90;;;;;;5085571;28;20435;-69
2023/08/09 01:50:23;;;;;;;7.63;3.20;;;16.50;99.90;;;;;;5071494;28;20534;-69
2023/08/09 01:52:48;;;;;;;5.40;3.00;;;16.50;99.90;;;;;;5084967;28;20423;-69
2023/08/09 01:55:19;;;;;;;2.47;2.27;;;16.60;99.90;;;;;;5076428;28;20434;-69
2023/08/09 01:57:47;;;;;;;2.63;2.03;;;16.60;99.90;;;;;;5071724;28;20206;-68
2023/08/09 02:00:19;;;;;;;1.40;1.23;;;16.60;99.90;;;;;;5089591;28;20447;-69
2023/08/09 02:02:46;;;;;;;1.30;1.10;;;16.70;99.90;;;;;;5081120;28;20456;-70
2023/08/09 02:05:11;;;;;;;2.87;1.53;;;16.70;99.90;;;;;;5091159;28;20430;-70
2023/08/09 02:07:37;;;;;;;2.93;1.80;;;16.60;99.90;;;;;;5063833;28;20440;-69
2023/08/09 02:10:04;;;;;;;3.10;1.60;;;16.60;99.90;;;;;;5079507;28;20203;-69
2023/08/09 02:12:30;;;;;;;1.57;1.30;;;16.60;99.90;;;;;;5092034;28;20157;-69
2023/08/09 02:14:55;;;;;;;1.57;1.37;;;16.60;99.90;;;;;;5081348;28;20766;-68
2023/08/09 02:17:21;;;;;;;1.63;1.53;;;16.50;99.90;;;;;;5086641;28;20741;-69
2023/08/09 02:19:47;;;;;;;2.00;1.80;;;16.50;99.90;;;;;;5085292;28;20170;-68
2023/08/09 02:22:17;;;;;;;1.50;1.40;;;16.40;99.90;;;;;;5070971;28;20221;-69
2023/08/09 02:24:43;;;;;;;3.00;1.70;;;16.40;99.90;;;;;;5076071;28;20428;-69
2023/08/09 02:27:09;;;;;;;3.23;1.80;;;16.40;99.90;;;;;;5092157;28;20880;-69
2023/08/09 02:29:36;;;;;;;2.10;1.87;;;16.40;99.90;;;;;;5094156;28;20470;-70
2023/08/09 02:32:02;;;;;;;1.50;1.40;;;16.40;99.90;;;;;;5095605;28;20423;-69
2023/08/09 02:34:28;;;;;;;1.97;1.60;;;16.30;99.90;;;;;;5095546;28;20411;-68
2023/08/09 02:36:54;;;;;;;2.13;1.57;;;16.30;99.90;;;;;;5093261;28;20485;-69
2023/08/09 02:39:20;;;;;;;2.53;2.07;;;16.30;99.90;;;;;;5090815;28;20423;-69
2023/08/09 02:41:45;;;;;;;1.90;1.70;;;16.30;99.90;;;;;;5095497;28;20488;-69
2023/08/09 02:44:11;;;;;;;2.43;1.60;;;16.30;99.90;;;;;;5095239;28;20819;-69
2023/08/09 02:46:37;;;;;;;2.17;1.90;;;16.30;99.90;;;;;;5092506;28;20173;-70
2023/08/09 02:49:03;;;;;;;2.57;1.97;;;16.30;99.90;;;;;;5076898;28;20542;-69
2023/08/09 02:51:28;;;;;;;2.13;1.80;;;16.30;99.90;;;;;;5092513;28;20684;-69
2023/08/09 02:54:02;;;;;;;2.03;1.67;;;16.30;99.90;;;;;;5078181;28;20188;-70
2023/08/09 02:56:29;;;;;;;2.40;2.07;;;16.30;99.90;;;;;;5093179;28;20920;-69
2023/08/09 02:58:56;;;;;;;2.40;2.10;;;16.20;99.90;;;;;;5090412;28;20455;-69
2023/08/09 03:01:22;;;;;;;3.63;2.00;;;16.20;99.90;;;;;;5071067;28;20458;-69
2023/08/09 03:03:49;;;;;;;2.10;1.90;;;16.20;99.90;;;;;;5077100;28;20950;-69
2023/08/09 03:06:17;;;;;;;1.97;1.77;;;16.20;99.90;;;;;;5094393;28;20495;-69
2023/08/09 03:08:46;;;;;;;1.70;1.60;;;16.20;99.90;;;;;;5087223;28;20450;-69
2023/08/09 03:11:13;;;;;;;3.80;2.00;;;16.20;99.90;;;;;;5075779;28;20542;-69
2023/08/09 03:13:39;;;;;;;1.60;1.40;;;16.20;99.90;;;;;;5090947;28;20540;-70
2023/08/09 03:16:05;;;;;;;1.93;1.70;;;16.20;99.90;;;;;;5093140;28;20478;-69
2023/08/09 03:18:31;;;;;;;2.03;1.83;;;16.20;99.90;;;;;;5091243;28;20432;-69
2023/08/09 03:20:56;;;;;;;3.27;1.87;;;16.20;99.90;;;;;;5096766;28;20200;-69
2023/08/09 03:23:22;;;;;;;1.87;1.77;;;16.20;99.90;;;;;;5095213;28;20205;-70
2023/08/09 03:25:47;;;;;;;2.70;2.17;;;16.20;99.90;;;;;;5082242;28;20659;-69
2023/08/09 03:28:13;;;;;;;2.80;1.93;;;16.10;99.90;;;;;;5080124;28;20547;-68
2023/08/09 03:30:38;;;;;;;1.80;1.57;;;16.10;99.90;;;;;;5071610;28;20208;-68
2023/08/09 03:33:04;;;;;;;1.87;1.53;;;16.10;99.90;;;;;;5097692;28;20176;-69
2023/08/09 03:35:30;;;;;;;2.23;2.03;;;16.10;99.90;;;;;;5093160;28;20181;-70
2023/08/09 03:37:55;;;;;;;2.40;2.20;;;16.10;99.90;;;;;;5084590;28;20209;-69
2023/08/09 03:40:21;;;;;;;3.10;2.20;;;16.10;99.90;;;;;;5083745;28;20343;-69
2023/08/09 03:42:46;;;;;;;4.13;2.40;;;16.10;99.90;;;;;;5085493;28;20827;-68
2023/08/09 03:45:12;;;;;;;3.10;2.17;;;16.10;99.90;;;;;;5091810;28;20181;-68
2023/08/09 03:47:38;;;;;;;2.50;2.10;;;16.10;99.90;;;;;;5065367;28;20181;-69
2023/08/09 03:50:05;;;;;;;2.20;1.83;;;16.10;99.90;;;;;;5082072;28;20181;-69
2023/08/09 03:52:32;;;;;;;1.73;1.63;;;16.10;99.90;;;;;;5082083;28;20436;-69
2023/08/09 03:54:57;;;;;;;2.17;2.03;;;16.10;99.90;;;;;;5091407;28;20478;-69
2023/08/09 03:57:23;;;;;;;4.33;1.70;;;16.10;99.90;;;;;;5085484;28;21015;-69
2023/08/09 03:59:49;;;;;;;2.67;2.30;;;16.10;99.90;;;;;;5082961;28;20216;-69
2023/08/09 04:02:15;;;;;;;2.27;2.00;;;16.10;99.90;;;;;;5072247;28;20174;-69
2023/08/09 04:04:41;;;;;;;2.07;1.90;;;16.10;99.90;;;;;;5089216;28;20476;-69
2023/08/09 04:07:07;;;;;;;3.00;2.37;;;16.10;99.90;;;;;;5078564;28;20448;-68
2023/08/09 04:09:33;;;;;;;3.20;2.90;;;16.10;99.90;;;;;;5072172;28;20177;-69
2023/08/09 04:11:59;;;;;;;2.60;2.40;;;16.10;99.90;;;;;;5067583;28;20561;-69
2023/08/09 04:14:27;;;;;;;3.00;2.03;;;16.10;99.90;;;;;;5085830;28;20188;-69
2023/08/09 04:16:53;;;;;;;3.47;2.60;;;16.10;99.90;;;;;;5089175;28;20517;-70
2023/08/09 04:19:19;;;;;;;2.87;2.30;;;16.10;99.90;;;;;;5066805;28;20424;-70
2023/08/09 04:21:44;;;;;;;2.93;2.70;;;16.20;99.90;;;;;;5092800;28;20720;-69
2023/08/09 04:24:10;;;;;;;2.70;2.50;;;16.20;99.90;;;;;;5086224;28;20178;-70
2023/08/09 04:26:36;;;;;;;2.00;1.90;;;16.20;99.90;;;;;;5071254;28;20800;-69
2023/08/09 04:29:02;;;;;;;3.23;2.40;;;16.20;99.90;;;;;;5084990;28;20174;-70
2023/08/09 04:31:28;;;;;;;3.67;3.00;;;16.20;99.90;;;;;;5078113;28;20452;-70
2023/08/09 04:33:54;;;;;;;2.30;2.10;;;16.20;99.90;;;;;;5101903;28;20910;-69
2023/08/09 04:36:20;;;;;;;2.77;2.40;;;16.30;99.90;;;;;;5082320;28;20452;-70
2023/08/09 04:38:46;;;;;;;3.00;1.87;;;16.30;99.90;;;;;;5091707;28;20607;-69
2023/08/09 04:41:12;;;;;;;2.47;1.70;;;16.30;99.90;;;;;;5088097;28;20834;-70
2023/08/09 04:43:42;;;;;;;2.30;2.10;;;16.30;99.90;;;;;;5087638;28;20443;-70
2023/08/09 04:46:10;;;;;;;2.37;2.00;;;16.40;99.90;;;;;;5056332;28;20170;-70
2023/08/09 04:48:37;;;;;;;1.77;1.67;;;16.40;99.90;;;;;;5081247;28;20439;-70
2023/08/09 04:51:03;;;;;;;2.53;2.10;;;16.50;99.90;;;;;;5087661;28;20462;-70
2023/08/09 04:53:28;;;;;;;1.60;1.37;;;16.70;99.90;;;;;;5074483;28;20435;-70
2023/08/09 04:55:54;;;;;;;1.43;1.33;;;16.80;99.90;;;;;;5078929;28;20170;-70
2023/08/09 04:58:20;;;;;;;2.00;1.80;;;16.90;99.90;;;;;;5071393;28;20646;-69
2023/08/09 05:00:45;;;;;;;2.17;1.97;;;17.00;99.90;;;;;;5072595;28;20227;-69
2023/08/09 05:03:11;;;;;;;1.57;1.47;;;17.10;99.90;;;;;;5093411;28;20173;-68
2023/08/09 05:05:37;;;;;;;1.73;1.63;;;17.20;99.90;;;;;;5086385;28;20170;-69
2023/08/09 05:08:03;;;;;;;2.10;1.80;;;17.30;99.90;;;;;;5083990;28;20448;-69
2023/08/09 05:10:28;;;;;;;1.60;1.50;;;17.40;99.90;;;;;;5076449;28;22381;-69
2023/08/09 05:12:54;;;;;;;2.10;1.50;;;17.60;99.90;;;;;;5089478;28;20436;-69
2023/08/09 05:15:20;;;;;;;1.70;1.60;;;17.60;99.90;;;;;;5065754;28;20182;-68
2023/08/09 05:17:45;;;;;;;2.43;2.20;;;17.70;99.90;;;;;;5092951;28;20201;-69
2023/08/09 05:20:11;;;;;;;1.47;1.37;;;17.70;99.90;;;;;;5094352;28;20190;-69
2023/08/09 05:22:37;;;;;;;3.03;1.97;;;17.70;99.90;;;;;;5083698;28;20216;-69
2023/08/09 05:25:03;;;;;;;1.53;1.43;;;17.70;99.90;;;;;;5085014;28;20457;-68
2023/08/09 05:27:28;;;;;;;3.13;1.60;;;17.80;99.90;;;;;;5068674;28;20178;-69
2023/08/09 05:29:54;;;;;;;1.73;1.63;;;17.80;99.90;;;;;;5083203;28;20932;-68
2023/08/09 05:32:21;;;;;;;2.00;1.80;;;18.00;99.90;;;;;;5092439;28;20642;-70
2023/08/09 05:34:46;;;;;;;3.90;2.00;;;18.20;99.90;;;;;;5074319;28;20177;-70
2023/08/09 05:37:12;;;;;;;2.60;2.40;;;18.30;99.90;;;;;;5096233;28;20461;-70
2023/08/09 05:39:38;;;;;;;1.90;1.67;;;18.50;99.90;;;;;;5091916;28;20173;-70
2023/08/09 05:42:04;;;;;;;2.53;2.20;;;18.60;99.90;;;;;;5091718;28;20200;-70
2023/08/09 05:44:29;;;;;;;4.83;3.00;;;18.60;99.90;;;;;;5084050;28;20710;-70
2023/08/09 05:46:55;;;;;;;4.03;2.83;;;18.70;99.90;;;;;;5070261;28;20964;-70
2023/08/09 05:49:20;;;;;;;3.87;2.60;;;18.80;99.90;;;;;;5079089;28;20537;-69
2023/08/09 05:51:46;;;;;;;2.43;2.23;;;18.80;99.90;;;;;;5079367;28;20202;-70
2023/08/09 05:54:11;;;;;;;2.83;2.63;;;18.70;99.90;;;;;;5084812;28;20205;-70
2023/08/09 05:56:37;;;;;;;2.90;2.70;;;18.70;99.90;;;;;;5089379;28;20200;-70
2023/08/09 05:59:04;;;;;;;3.27;2.97;;;18.80;99.90;;;;;;5089143;28;20170;-70
2023/08/09 06:01:30;;;;;;;2.87;2.57;;;18.80;99.90;;;;;;5085867;28;20466;-69
2023/08/09 06:03:55;;;;;;;3.30;3.00;;;18.80;99.90;;;;;;5081881;28;20436;-70
2023/08/09 06:06:22;;;;;;;2.90;2.70;;;18.90;99.90;;;;;;5088976;28;20964;-68
2023/08/09 06:08:48;;;;;;;4.00;3.60;;;18.80;99.90;;;;;;5092788;28;20170;-69
2023/08/09 06:11:13;;;;;;;3.97;3.67;;;18.90;99.90;;;;;;5096282;28;20431;-69
2023/08/09 06:13:39;;;;;;;5.17;3.17;;;18.90;99.90;;;;;;5092804;28;22029;-69
2023/08/09 06:16:05;;;;;;;3.37;3.07;;;18.90;99.90;;;;;;5092219;28;20201;-69
2023/08/09 06:18:30;;;;;;;5.17;3.83;;;19.00;99.90;;;;;;5094105;28;20535;-70
2023/08/09 06:20:55;;;;;;;5.20;4.67;;;19.00;99.90;;;;;;5084147;28;20193;-69
2023/08/09 06:23:21;;;;;;;4.23;3.80;;;19.20;99.90;;;;;;5095249;28;20185;-69
2023/08/09 06:25:49;;;;;;;4.37;3.70;;;19.40;99.90;;;;;;5069341;28;20178;-69
2023/08/09 06:28:15;;;;;;;5.30;4.03;;;19.50;99.90;;;;;;5093293;28;20170;-69
2023/08/09 06:30:41;;;;;;;3.27;3.00;;;19.70;99.90;;;;;;5073018;28;20451;-69
2023/08/09 06:33:07;;;;;;;3.70;3.30;;;19.80;99.90;;;;;;5080712;28;20795;-68
2023/08/09 06:35:33;;;;;;;4.23;3.90;;;20.00;99.90;;;;;;5085563;28;20707;-69
2023/08/09 06:37:58;;;;;;;3.03;2.73;;;20.00;99.90;;;;;;5086298;28;20491;-69
2023/08/09 06:40:24;;;;;;;2.50;2.30;;;20.10;99.90;;;;;;5078002;28;20193;-69
2023/08/09 06:42:50;;;;;;;3.77;3.27;;;20.10;99.90;;;;;;5095778;28;20180;-69
2023/08/09 06:45:16;;;;;;;2.80;2.60;;;20.10;99.90;;;;;;5082480;28;20430;-69
2023/08/09 06:47:41;;;;;;;2.77;2.40;;;20.10;99.90;;;;;;5089145;28;20638;-69
2023/08/09 06:50:07;;;;;;;3.50;3.20;;;20.30;99.90;;;;;;5082641;28;20260;-68
2023/08/09 06:52:37;;;;;;;4.40;4.00;;;20.50;99.90;;;;;;5094518;28;20184;-69
2023/08/09 06:55:04;;;;;;;4.47;4.07;;;20.70;99.90;;;;;;5085440;28;20424;-69
2023/08/09 06:57:30;;;;;;;3.87;3.57;;;20.90;99.90;;;;;;5075303;28;20451;-68
2023/08/09 06:59:56;;;;;;;5.03;4.53;;;21.10;99.90;;;;;;5082406;28;20446;-69
2023/08/09 07:02:21;;;;;;;3.80;3.50;;;21.40;99.90;;;;;;5098147;28;20195;-69
2023/08/09 07:04:49;;;;;;;4.03;3.63;;;21.70;99.90;;;;;;5093093;28;20240;-69
2023/08/09 07:07:15;;;;;;;6.43;3.87;;;23.00;99.90;;;;;;5090248;28;20192;-69
2023/08/09 07:09:42;;;;;;;3.40;2.60;;;25.30;99.90;;;;;;5090773;28;20439;-69
2023/08/09 07:12:07;;;;;;;2.93;2.70;;;27.50;99.90;;;;;;5076216;28;20208;-69
2023/08/09 07:14:33;;;;;;;2.47;2.27;;;29.60;99.90;;;;;;5084784;28;20929;-69
2023/08/09 07:16:58;;;;;;;3.00;2.80;;;31.10;99.90;;;;;;5091147;28;20540;-70
2023/08/09 07:19:24;;;;;;;2.80;2.60;;;32.40;99.30;;;;;;5085615;28;20178;-70
2023/08/09 07:21:49;;;;;;;2.97;2.77;;;33.70;83.00;;;;;;5093901;28;20202;-70
2023/08/09 07:24:15;;;;;;;2.90;2.70;;;35.20;64.50;;;;;;5092701;28;20643;-70
2023/08/09 07:26:40;;;;;;;2.90;2.70;;;36.50;55.50;;;;;;5090843;28;20682;-70
2023/08/09 07:29:06;;;;;;;2.83;2.63;;;36.40;49.90;;;;;;5086613;28;20182;-70
2023/08/09 07:31:31;;;;;;;3.80;3.53;;;35.60;48.00;;;;;;5092275;28;20280;-70
2023/08/09 07:33:57;;;;;;;2.73;2.60;;;34.40;47.30;;;;;;5087326;28;20177;-70
2023/08/09 07:36:22;;;;;;;3.20;3.00;;;33.20;47.50;;;;;;5088999;28;20193;-70
2023/08/09 07:38:48;;;;;;;4.10;3.80;;;31.90;47.90;;;;;;5091515;28;20182;-69
2023/08/09 07:41:14;;;;;;;3.80;3.47;;;30.40;48.40;;;;;;5088865;28;20639;-69
2023/08/09 07:43:39;;;;;;;3.37;3.17;;;29.20;49.80;;;;;;5074672;28;20241;-69
2023/08/09 07:46:06;;;;;;;2.83;2.60;;;28.20;52.10;;;;;;5094094;28;20698;-69
2023/08/09 07:48:34;;;;;;;3.77;3.47;;;27.30;54.90;;;;;;5078848;28;20174;-69
2023/08/09 07:51:00;;;;;;;4.23;2.70;;;26.40;60.40;;;;;;5078081;28;20467;-69
2023/08/09 07:53:26;;;;;;;3.37;3.07;;;25.70;85.90;;;;;;5093679;28;20480;-69
2023/08/09 07:55:53;;;;;;;3.77;3.47;;;25.10;99.90;;;;;;5075556;28;20424;-69
2023/08/09 07:58:18;;;;;;;3.80;3.50;;;24.50;99.90;;;;;;5089492;28;20175;-69
2023/08/09 08:00:44;;;;;;;4.23;2.90;;;23.80;99.90;;;;;;5084661;28;20951;-69
2023/08/09 08:03:09;;;;;;;3.60;3.30;;;23.30;99.90;;;;;;5080821;28;20679;-69
2023/08/09 08:05:36;;;;;;;3.10;2.90;;;23.00;99.90;;;;;;5066940;28;20205;-66
2023/08/09 08:08:02;;;;;;;12.60;10.30;;;22.70;99.90;;;;;;5081545;28;20217;-66
2023/08/09 08:10:28;;;;;;;7.07;5.90;;;22.80;99.90;;;;;;5084844;28;20455;-66
2023/08/09 08:12:54;;;;;;;3.73;3.30;;;23.00;99.90;;;;;;5064864;28;20502;-66
2023/08/09 08:15:20;;;;;;;3.40;3.10;;;23.40;99.90;;;;;;5084896;28;20669;-67
2023/08/09 08:17:46;;;;;;;2.97;2.60;;;23.70;99.90;;;;;;5094735;28;20463;-66
2023/08/09 08:20:15;;;;;;;3.00;2.73;;;23.90;99.90;;;;;;5072370;28;20455;-67
2023/08/09 08:22:43;;;;;;;2.60;2.40;;;24.10;99.90;;;;;;5081296;28;20487;-67
2023/08/09 08:25:10;;;;;;;3.27;2.97;;;24.50;99.90;;;;;;5067692;28;20795;-67
2023/08/09 08:27:36;;;;;;;2.60;2.40;;;25.40;99.90;;;;;;5088069;28;20447;-67
2023/08/09 08:30:04;;;;;;;2.13;2.00;;;28.00;99.90;;;;;;5089971;28;20435;-67
2023/08/09 08:32:30;;;;;;;2.30;2.10;;;31.50;99.90;;;;;;5082081;28;20425;-68
2023/08/09 08:34:56;;;;;;;3.10;2.90;;;34.90;74.20;;;;;;5085932;28;20453;-68
2023/08/09 08:37:22;;;;;;;2.50;2.30;;;37.80;54.80;;;;;;5083746;28;20243;-68
2023/08/09 08:39:48;;;;;;;2.70;2.50;;;40.00;47.00;;;;;;5086902;28;20406;-68
2023/08/09 08:42:14;;;;;;;2.50;2.30;;;41.70;41.60;;;;;;5088203;28;20456;-68
2023/08/09 08:44:39;;;;;;;2.57;2.40;;;43.30;38.90;;;;;;5080551;28;20170;-69
2023/08/09 08:47:06;;;;;;;2.80;2.60;;;44.90;36.40;;;;;;5090119;28;20184;-69
2023/08/09 08:49:34;;;;;;;2.40;2.20;;;46.20;33.40;;;;;;5087478;28;20540;-69
2023/08/09 08:52:03;;;;;;;2.30;2.20;;;47.60;33.10;;;;;;5084774;28;20425;-69
2023/08/09 08:54:29;;;;;;;2.33;2.23;;;48.00;31.60;;;;;;5081544;28;20498;-69
2023/08/09 08:56:54;;;;;;;2.90;2.70;;;48.40;29.10;;;;;;5089907;28;20428;-69
2023/08/09 08:59:21;;;;;;;4.57;4.27;;;48.80;27.10;;;;;;5085021;28;20432;-69
2023/08/09 09:01:47;;;;;;;3.77;3.57;;;49.40;27.60;;;;;;5085277;28;20269;-69
2023/08/09 09:04:13;;;;;;;2.40;2.30;;;49.90;27.90;;;;;;5086889;28;20409;-69
2023/08/09 09:06:40;;;;;;;4.30;4.00;;;50.30;28.00;;;;;;5100112;28;20459;-69
2023/08/09 09:09:11;;;;;;;3.47;3.20;;;50.70;27.50;;;;;;5068772;28;20418;-67
2023/08/09 09:11:37;;;;;;;2.57;2.47;;;51.00;25.90;;;;;;5075693;28;20457;-67
2023/08/09 09:14:10;;;;;;;3.40;2.43;;;51.30;25.60;;;;;;5091389;28;20370;-67
2023/08/09 09:16:35;;;;;;;3.20;3.00;;;51.80;26.10;;;;;;5089259;28;20892;-67
2023/08/09 09:19:02;;;;;;;3.10;2.90;;;51.60;24.50;;;;;;5069189;28;20480;-69
2023/08/09 09:21:31;;;;;;;2.77;2.67;;;51.20;23.90;;;;;;5064392;28;20397;-67
2023/08/09 09:23:57;;;;;;;3.17;2.97;;;50.80;24.20;;;;;;5085396;28;20459;-67
2023/08/09 09:26:23;;;;;;;3.90;2.87;;;49.60;23.50;;;;;;5090434;28;20479;-66
2023/08/09 09:28:49;;;;;;;2.80;2.67;;;48.50;23.90;;;;;;5092523;28;20210;-67
2023/08/09 09:31:19;;;;;;;2.77;2.50;;;48.00;23.70;;;;;;5089600;28;20422;-67
2023/08/09 09:33:51;;;;;;;3.33;3.03;;;47.50;23.10;;;;;;5087244;28;20627;-67
2023/08/09 09:36:17;;;;;;;3.50;2.30;;;47.30;23.90;;;;;;5073483;28;20415;-67
2023/08/09 09:38:44;;;;;;;2.80;2.60;;;47.90;25.40;;;;;;5090245;28;20431;-67
2023/08/09 09:41:10;;;;;;;2.57;2.40;;;48.80;26.00;;;;;;5086744;28;20447;-67
2023/08/09 09:43:43;;;;;;;3.00;2.80;;;49.70;24.90;;;;;;5090935;28;20927;-67
2023/08/09 09:46:20;;;;;;;2.33;2.23;;;50.30;23.50;;;;;;5091141;28;20491;-67
2023/08/09 09:48:49;;;;;;;4.87;2.40;;;51.60;24.60;;;;;;5088647;28;20988;-67
2023/08/09 09:51:19;;;;;;;2.50;2.30;;;52.90;22.90;;;;;;5093927;28;20458;-67
2023/08/09 09:53:46;;;;;;;2.30;2.20;;;53.20;22.50;;;;;;5083335;28;20428;-69
2023/08/09 09:56:13;;;;;;;2.20;2.00;;;53.30;22.80;;;;;;5072899;28;20454;-69
2023/08/09 09:58:39;;;;;;;2.40;2.30;;;52.10;22.90;;;;;;5086549;28;20485;-69
2023/08/09 10:01:08;;;;;;;2.53;2.33;;;51.20;23.50;;;;;;5083000;28;20490;-69
2023/08/09 10:03:36;;;;;;;2.57;2.37;;;50.10;23.90;;;;;;5079574;28;20431;-69
2023/08/09 10:06:02;;;;;;;2.40;2.20;;;49.10;24.50;;;;;;5064433;28;20402;-68
2023/08/09 10:08:29;;;;;;;2.90;2.70;;;48.80;23.30;;;;;;5082688;28;20447;-68
2023/08/09 10:10:56;;;;;;;2.03;1.93;;;47.50;23.30;;;;;;5088906;28;20439;-68
2023/08/09 10:13:23;;;;;;;3.23;2.93;;;46.20;24.70;;;;;;5074763;28;20410;-68
2023/08/09 10:15:57;;;;;;;2.93;2.70;;;44.30;25.50;;;;;;5078013;28;20506;-68
2023/08/09 10:18:39;;;;;;;4.80;2.10;;;42.30;26.40;;;;;;5080504;28;20976;-68
2023/08/09 10:21:06;;;;;;;2.43;2.23;;;42.10;26.40;;;;;;5077820;28;20481;-68
2023/08/09 10:23:32;;;;;;;2.03;1.93;;;44.30;27.70;;;;;;5083582;28;20400;-68
2023/08/09 10:25:58;;;;;;;2.73;2.47;;;46.40;26.60;;;;;;5087943;28;20397;-69
2023/08/09 10:28:44;;;;;;;2.40;2.27;;;48.50;25.80;;;;;;5084909;28;20178;-69
2023/08/09 10:31:10;;;;;;;2.50;2.30;;;50.30;24.40;;;;;;5085065;28;20451;-69
2023/08/09 10:33:35;;;;;;;2.53;2.43;;;50.90;24.30;;;;;;5087294;28;20939;-69
2023/08/09 10:36:01;;;;;;;2.40;2.30;;;51.40;24.00;;;;;;5085172;28;20178;-68
2023/08/09 10:38:32;;;;;;;2.23;2.13;;;50.50;23.40;;;;;;5086621;28;20201;-68
2023/08/09 10:40:59;;;;;;;2.70;2.50;;;48.80;23.70;;;;;;5088652;28;20205;-67
2023/08/09 10:43:29;;;;;;;2.80;2.60;;;47.00;24.30;;;;;;5077595;28;20406;-67
2023/08/09 10:45:56;;;;;;;2.53;2.33;;;45.40;25.20;;;;;;5079137;28;21067;-67
2023/08/09 10:48:26;;;;;;;2.63;2.43;;;43.80;25.80;;;;;;5087741;28;20774;-67
2023/08/09 10:51:07;;;;;;;2.37;2.17;;;42.40;26.60;;;;;;5086721;28;20895;-67
2023/08/09 10:54:00;;;;;;;2.70;2.50;;;41.10;27.40;;;;;;5061326;28;20409;-66
2023/08/09 10:56:42;;;;;;;2.90;2.60;;;39.60;26.90;;;;;;5083732;28;20402;-67
2023/08/09 10:59:12;;;;;;;3.00;2.77;;;39.00;28.30;;;;;;5085528;28;20435;-67
2023/08/09 11:01:40;;;;;;;2.80;2.60;;;38.70;29.10;;;;;;5086691;28;20466;-67
2023/08/09 11:04:07;;;;;;;2.33;2.17;;;37.50;28.20;;;;;;5106552;28;20437;-67
2023/08/09 11:06:37;;;;;;;2.50;2.30;;;37.20;29.20;;;;;;5085499;28;20764;-66
2023/08/09 11:09:17;;;;;;;5.67;2.13;;;37.30;30.80;;;;;;5087858;28;20989;-67
2023/08/09 11:11:46;;;;;;;3.17;2.00;;;37.80;30.60;;;;;;5088372;28;20794;-67
2023/08/09 11:14:13;;;;;;;2.20;2.10;;;38.20;30.00;;;;;;5088453;28;20394;-66
2023/08/09 11:16:39;;;;;;;2.67;2.37;;;38.60;30.50;;;;;;5090087;28;20398;-66
2023/08/09 11:19:07;;;;;;;3.07;2.70;;;39.10;29.40;;;;;;5089048;28;20727;-67
2023/08/09 11:21:46;;;;;;;2.50;2.30;;;39.60;29.80;;;;;;5077194;28;20193;-68
2023/08/09 11:24:13;;;;;;;2.90;2.43;;;40.20;30.00;;;;;;5089017;28;20477;-67
2023/08/09 11:26:54;;;;;;;4.70;2.77;;;40.20;29.80;;;;;;5083000;28;20425;-67
2023/08/09 11:29:22;;;;;;;2.80;2.53;;;39.90;28.70;;;;;;5091375;28;20845;-67
2023/08/09 11:31:55;;;;;;;2.73;2.53;;;39.70;29.50;;;;;;5086787;28;20456;-67
2023/08/09 11:34:23;;;;;;;2.70;2.50;;;39.70;30.00;;;;;;5086636;28;20466;-67
2023/08/09 11:36:52;;;;;;;2.40;2.20;;;40.80;29.90;;;;;;5079587;28;21158;-67
2023/08/09 11:39:20;;;;;;;2.30;2.20;;;41.60;29.20;;;;;;5076082;28;20820;-67
2023/08/09 11:41:55;;;;;;;2.40;2.20;;;42.80;29.00;;;;;;5083585;28;20429;-67
2023/08/09 11:44:21;;;;;;;3.90;2.17;;;43.00;27.80;;;;;;5088426;28;20403;-67
2023/08/09 11:46:46;;;;;;;2.50;2.30;;;43.70;27.90;;;;;;5088399;28;20802;-68
2023/08/09 11:49:12;;;;;;;2.77;2.57;;;45.30;27.90;;;;;;5082876;28;20420;-68
2023/08/09 11:51:38;;;;;;;2.60;2.40;;;48.00;27.40;;;;;;5088480;28;20296;-67
2023/08/09 11:54:08;;;;;;;2.80;2.60;;;50.10;25.50;;;;;;5090447;28;20415;-68
2023/08/09 11:56:35;;;;;;;2.63;2.53;;;51.70;24.50;;;;;;5084333;28;20265;-68
2023/08/09 11:59:03;;;;;;;2.60;2.40;;;51.90;23.70;;;;;;5090742;28;20477;-68
2023/08/09 12:01:35;;;;;;;2.33;2.23;;;49.90;23.60;;;;;;5086981;28;20443;-68
2023/08/09 12:04:13;;;;;;;2.70;2.50;;;47.50;23.90;;;;;;5066852;28;20480;-68
2023/08/09 12:06:54;;;;;;;2.30;2.20;;;47.10;25.20;;;;;;5079301;28;20824;-68
2023/08/09 12:09:37;;;;;;;2.63;2.43;;;47.70;24.20;;;;;;5089410;28;20432;-68
2023/08/09 12:12:33;;;;;;;11.43;10.30;;;47.20;24.70;;;;;;5087617;28;20508;-68
2023/08/09 12:14:59;;;;;;;4.03;3.37;;;46.80;24.90;;;;;;5083631;28;20504;-67
2023/08/09 12:17:29;;;;;;;3.87;3.27;;;46.90;25.00;;;;;;5088749;28;20938;-66
2023/08/09 12:20:00;;;;;;;3.17;2.97;;;46.50;25.20;;;;;;5072345;28;20297;-67
2023/08/09 12:22:26;;;;;;;2.50;2.30;;;45.80;25.60;;;;;;5076925;28;20424;-67
2023/08/09 12:24:53;;;;;;;2.77;2.57;;;44.60;25.50;;;;;;5090858;28;20775;-66
2023/08/09 12:27:19;;;;;;;2.10;1.90;;;43.30;26.20;;;;;;5088768;28;20925;-66
2023/08/09 12:29:46;;;;;;;1.90;1.80;;;42.50;26.50;;;;;;5086390;28;20403;-67
2023/08/09 12:32:12;;;;;;;2.13;2.00;;;41.60;26.80;;;;;;5078496;28;20468;-67
2023/08/09 12:34:37;;;;;;;2.20;2.10;;;40.70;27.10;;;;;;5085219;28;20398;-66
2023/08/09 12:37:04;;;;;;;2.17;2.07;;;39.70;27.50;;;;;;5085530;28;20394;-66
2023/08/09 12:39:30;;;;;;;1.60;1.50;;;38.80;27.90;;;;;;5108046;28;20200;-68
2023/08/09 12:41:56;;;;;;;1.93;1.83;;;38.30;29.00;;;;;;5096383;28;20799;-68
2023/08/09 12:44:21;;;;;;;2.00;1.77;;;39.60;30.50;;;;;;5098221;28;20540;-67
2023/08/09 12:46:47;;;;;;;1.53;1.43;;;42.10;30.10;;;;;;5096975;28;20202;-67